createdAt,value
2023-02-03T00:02:22.782Z,9.00
2023-02-03T00:04:49.717Z,9.00
2023-02-03T00:07:17.079Z,9.00
2023-02-03T00:09:44.043Z,8.90
2023-02-03T00:12:10.961Z,8.90
2023-02-03T00:14:38.084Z,8.90
2023-02-03T00:17:05.413Z,8.80
2023-02-03T00:19:33.749Z,8.80
2023-02-03T00:22:00.649Z,8.80
2023-02-03T00:24:27.915Z,8.80
2023-02-03T00:26:54.800Z,8.80
2023-02-03T00:29:25.709Z,8.70
2023-02-03T00:31:53.873Z,8.80
2023-02-03T00:34:21.309Z,8.80
2023-02-03T00:36:49.716Z,8.80
2023-02-03T00:39:17.010Z,8.70
2023-02-03T00:41:44.078Z,8.70
2023-02-03T00:44:11.272Z,8.80
2023-02-03T00:46:38.283Z,8.70
2023-02-03T00:49:05.418Z,8.70
2023-02-03T00:51:33.065Z,8.70
2023-02-03T00:54:01.449Z,8.70
2023-02-03T00:56:28.339Z,8.70
2023-02-03T00:58:55.222Z,8.70
2023-02-03T01:01:22.254Z,8.70
2023-02-03T01:03:49.181Z,8.70
2023-02-03T01:06:18.184Z,8.70
2023-02-03T01:08:45.627Z,8.70
2023-02-03T01:11:17.309Z,8.70
2023-02-03T01:13:45.091Z,8.80
2023-02-03T01:16:14.546Z,8.80
2023-02-03T01:18:41.702Z,8.80
2023-02-03T01:21:10.270Z,8.90
2023-02-03T01:23:37.689Z,8.80
2023-02-03T01:26:05.389Z,8.80
2023-02-03T01:28:33.685Z,8.80
2023-02-03T01:31:10.335Z,8.80
2023-02-03T01:33:40.521Z,8.80
2023-02-03T01:36:08.349Z,8.70
2023-02-03T01:38:35.411Z,8.70
2023-02-03T01:41:02.593Z,8.80
2023-02-03T01:43:30.944Z,8.80
2023-02-03T01:46:02.395Z,8.70
2023-02-03T01:48:31.418Z,8.70
2023-02-03T01:51:00.396Z,8.70
2023-02-03T01:53:27.687Z,8.70
2023-02-03T01:55:54.597Z,8.60
2023-02-03T01:58:25.896Z,8.60
2023-02-03T02:00:54.266Z,8.60
2023-02-03T02:03:27.108Z,8.60
2023-02-03T02:06:00.641Z,8.60
2023-02-03T02:08:28.394Z,8.60
2023-02-03T02:10:55.719Z,8.60
2023-02-03T02:13:23.596Z,8.60
2023-02-03T02:15:59.781Z,8.60
2023-02-03T02:18:57.268Z,8.60
2023-02-03T02:21:47.852Z,8.60
2023-02-03T02:24:42.251Z,8.60
2023-02-03T02:27:18.766Z,8.60
2023-02-03T02:30:20.569Z,8.60
2023-02-03T02:33:01.666Z,8.60
2023-02-03T02:35:39.722Z,8.60
2023-02-03T02:38:15.509Z,8.60
2023-02-03T02:40:49.798Z,8.60
2023-02-03T02:43:21.000Z,8.70
2023-02-03T02:45:50.315Z,8.70
2023-02-03T02:48:24.383Z,8.70
2023-02-03T02:50:55.167Z,8.70
2023-02-03T02:53:25.796Z,8.80
2023-02-03T02:55:54.525Z,8.80
2023-02-03T02:58:23.313Z,8.80
2023-02-03T03:00:50.488Z,8.80
2023-02-03T03:03:21.392Z,8.60
2023-02-03T03:05:52.950Z,8.70
2023-02-03T03:08:23.541Z,8.80
2023-02-03T03:10:51.849Z,8.80
2023-02-03T03:13:22.769Z,8.70
2023-02-03T03:15:52.518Z,8.70
2023-02-03T03:18:23.727Z,8.70
2023-02-03T03:20:53.316Z,8.60
2023-02-03T03:23:27.396Z,8.60
2023-02-03T03:26:00.529Z,8.60
2023-02-03T03:28:33.053Z,8.60
2023-02-03T03:31:00.232Z,8.50
2023-02-03T03:33:28.876Z,8.50
2023-02-03T03:36:03.292Z,8.50
2023-02-03T03:38:37.009Z,8.50
2023-02-03T03:41:08.629Z,8.50
2023-02-03T03:43:39.772Z,8.50
2023-02-03T03:46:12.712Z,8.50
2023-02-03T03:48:47.991Z,8.50
2023-02-03T03:51:19.245Z,8.50
2023-02-03T03:53:49.853Z,8.50
2023-02-03T03:56:21.154Z,8.50
2023-02-03T03:58:50.103Z,8.50
2023-02-03T04:01:18.069Z,8.50
2023-02-03T04:03:49.404Z,8.50
2023-02-03T04:06:16.592Z,8.40
2023-02-03T04:08:43.424Z,8.40
2023-02-03T04:11:10.261Z,8.40
2023-02-03T04:13:37.048Z,8.40
2023-02-03T04:16:04.060Z,8.40
2023-02-03T04:18:31.087Z,8.40
2023-02-03T04:20:59.283Z,8.40
2023-02-03T04:23:26.085Z,8.40
2023-02-03T04:25:52.898Z,8.40
2023-02-03T04:28:19.775Z,8.50
2023-02-03T04:30:46.654Z,8.50
2023-02-03T04:33:13.504Z,8.50
2023-02-03T04:35:40.291Z,8.50
2023-02-03T04:38:08.481Z,8.50
2023-02-03T04:40:35.292Z,8.50
2023-02-03T04:43:06.850Z,8.40
2023-02-03T04:45:33.812Z,8.50
2023-02-03T04:48:00.693Z,8.50
2023-02-03T04:50:27.844Z,8.50
2023-02-03T04:52:54.894Z,8.50
2023-02-03T04:55:23.141Z,8.50
2023-02-03T04:57:54.641Z,8.50
2023-02-03T05:00:21.713Z,8.50
2023-02-03T05:02:48.612Z,8.50
2023-02-03T05:05:15.464Z,8.40
2023-02-03T05:07:42.290Z,8.40
2023-02-03T05:10:10.187Z,8.40
2023-02-03T05:12:38.419Z,8.40
2023-02-03T05:15:06.097Z,8.30
2023-02-03T05:17:36.537Z,8.30
2023-02-03T05:20:03.503Z,8.30
2023-02-03T05:22:30.361Z,8.40
2023-02-03T05:24:57.263Z,8.30
2023-02-03T05:27:24.056Z,8.20
2023-02-03T05:29:52.258Z,8.20
2023-02-03T05:32:19.233Z,8.30
2023-02-03T05:34:46.042Z,8.20
2023-02-03T05:37:12.898Z,8.30
2023-02-03T05:39:39.701Z,8.20
2023-02-03T05:42:06.484Z,8.30
2023-02-03T05:44:33.312Z,8.30
2023-02-03T05:47:01.577Z,8.30
2023-02-03T05:49:28.457Z,8.30
2023-02-03T05:51:56.293Z,8.30
2023-02-03T05:54:23.159Z,8.40
2023-02-03T05:56:50.049Z,8.40
2023-02-03T05:59:17.093Z,8.40
2023-02-03T06:01:43.950Z,8.40
2023-02-03T06:04:12.779Z,8.40
2023-02-03T06:06:39.620Z,8.40
2023-02-03T06:09:08.202Z,8.40
2023-02-03T06:11:35.942Z,8.50
2023-02-03T06:14:03.237Z,8.40
2023-02-03T06:16:30.316Z,8.50
2023-02-03T06:18:59.576Z,8.40
2023-02-03T06:21:28.555Z,8.50
2023-02-03T06:23:56.629Z,8.50
2023-02-03T06:26:24.054Z,8.50
2023-02-03T06:28:50.811Z,8.40
2023-02-03T06:31:17.809Z,8.40
2023-02-03T06:33:44.782Z,8.40
2023-02-03T06:36:11.760Z,8.50
2023-02-03T06:38:40.043Z,8.50
2023-02-03T06:41:06.923Z,8.50
2023-02-03T06:43:35.425Z,8.50
2023-02-03T06:46:02.578Z,8.50
2023-02-03T06:48:29.475Z,8.50
2023-02-03T06:50:56.456Z,8.50
2023-02-03T06:53:23.334Z,8.60
2023-02-03T06:55:51.605Z,8.40
2023-02-03T06:58:18.424Z,8.60
2023-02-03T07:00:45.308Z,8.60
2023-02-03T07:03:12.133Z,8.60
2023-02-03T07:05:40.723Z,8.60
2023-02-03T07:08:07.641Z,8.60
2023-02-03T07:10:34.552Z,8.70
2023-02-03T07:13:06.417Z,8.60
2023-02-03T07:15:33.658Z,8.70
2023-02-03T07:18:00.546Z,8.60
2023-02-03T07:20:29.034Z,8.60
2023-02-03T07:22:57.320Z,8.60
2023-02-03T07:25:25.773Z,8.60
2023-02-03T07:27:52.913Z,8.70
2023-02-03T07:30:21.613Z,8.60
2023-02-03T07:32:49.629Z,8.60
2023-02-03T07:35:17.188Z,8.60
2023-02-03T07:37:44.664Z,8.60
2023-02-03T07:40:13.259Z,8.60
2023-02-03T07:42:42.712Z,8.60
2023-02-03T07:45:11.072Z,8.60
2023-02-03T07:47:39.985Z,8.60
2023-02-03T07:50:07.832Z,8.60
2023-02-03T07:52:34.797Z,8.60
2023-02-03T07:55:02.760Z,8.60
2023-02-03T07:57:29.915Z,8.60
2023-02-03T07:59:57.068Z,8.70
2023-02-03T08:02:23.965Z,8.70
2023-02-03T08:04:52.408Z,8.70
2023-02-03T08:07:19.166Z,8.70
2023-02-03T08:09:46.063Z,8.70
2023-02-03T08:12:12.953Z,8.70
2023-02-03T08:14:40.130Z,8.80
2023-02-03T08:17:07.028Z,8.80
2023-02-03T08:19:34.176Z,8.60
2023-02-03T08:22:02.558Z,8.90
2023-02-03T08:24:29.549Z,9.00
2023-02-03T08:26:56.725Z,8.90
2023-02-03T08:29:23.600Z,8.90
2023-02-03T08:31:50.950Z,9.00
2023-02-03T08:34:18.278Z,9.10
2023-02-03T08:36:45.321Z,9.10
2023-02-03T08:39:14.184Z,9.20
2023-02-03T08:41:41.087Z,9.20
2023-02-03T08:44:08.413Z,9.30
2023-02-03T08:46:36.480Z,9.30
2023-02-03T08:49:03.656Z,9.30
2023-02-03T08:51:30.551Z,9.40
2023-02-03T08:53:57.438Z,9.40
2023-02-03T08:56:26.463Z,9.50
2023-02-03T08:58:54.998Z,9.50
2023-02-03T09:01:23.110Z,9.50
2023-02-03T09:03:52.577Z,9.50
2023-02-03T09:06:22.310Z,9.50
2023-02-03T09:08:50.333Z,9.50
2023-02-03T09:11:19.399Z,9.50
2023-02-03T09:13:49.336Z,9.50
2023-02-03T09:16:19.554Z,9.50
2023-02-03T09:18:47.680Z,9.50
2023-02-03T09:21:32.292Z,9.50
2023-02-03T09:24:05.250Z,9.60
2023-02-03T09:26:33.026Z,9.60
2023-02-03T09:29:02.148Z,9.60
2023-02-03T09:31:29.534Z,9.70
2023-02-03T09:33:57.405Z,9.70
2023-02-03T09:36:25.504Z,9.70
2023-02-03T09:38:53.131Z,9.70
2023-02-03T09:41:37.132Z,9.80
2023-02-03T09:44:12.005Z,9.80
2023-02-03T09:46:43.495Z,9.80
2023-02-03T09:49:18.759Z,9.70
2023-02-03T09:51:52.891Z,9.70
2023-02-03T09:54:23.038Z,9.80
2023-02-03T09:56:54.664Z,9.80
2023-02-03T09:59:24.456Z,9.80
2023-02-03T10:02:00.116Z,9.80
2023-02-03T10:04:34.174Z,9.90
2023-02-03T10:07:12.595Z,9.90
2023-02-03T10:09:50.573Z,9.90
2023-02-03T10:12:43.283Z,9.90
2023-02-03T10:15:33.298Z,9.90
2023-02-03T10:18:06.612Z,9.90
2023-02-03T10:20:39.423Z,10.00
2023-02-03T10:23:13.006Z,10.00
2023-02-03T10:25:44.144Z,10.00
2023-02-03T10:28:17.209Z,10.00
2023-02-03T10:30:48.809Z,10.00
2023-02-03T10:33:17.740Z,10.00
2023-02-03T10:35:50.728Z,10.00
2023-02-03T10:38:26.515Z,10.10
2023-02-03T10:40:54.210Z,10.10
2023-02-03T10:43:40.040Z,10.10
2023-02-03T10:46:08.720Z,10.10
2023-02-03T10:48:35.785Z,10.10
2023-02-03T10:51:03.562Z,10.10
2023-02-03T10:53:35.250Z,10.20
2023-02-03T10:56:05.542Z,10.20
2023-02-03T10:58:35.034Z,10.20
2023-02-03T11:01:10.343Z,10.20
2023-02-03T11:03:41.261Z,10.20
2023-02-03T11:06:11.176Z,10.30
2023-02-03T11:08:40.378Z,10.30
2023-02-03T11:11:09.688Z,10.30
2023-02-03T11:13:37.063Z,10.30
2023-02-03T11:16:05.976Z,10.40
2023-02-03T11:18:47.277Z,10.40
2023-02-03T11:21:17.715Z,10.40
2023-02-03T11:23:55.321Z,10.40
2023-02-03T11:26:25.441Z,10.40
2023-02-03T11:28:56.429Z,10.50
2023-02-03T11:31:26.062Z,10.50
2023-02-03T11:33:58.178Z,10.40
2023-02-03T11:36:29.172Z,10.50
2023-02-03T11:39:20.102Z,10.40
2023-02-03T11:41:48.568Z,10.40
2023-02-03T11:44:24.232Z,10.40
2023-02-03T11:46:54.935Z,10.40
2023-02-03T11:50:09.834Z,10.40
2023-02-03T11:52:54.308Z,10.50
2023-02-03T11:55:34.677Z,10.50
2023-02-03T11:58:14.029Z,10.40
2023-02-03T12:00:50.991Z,10.40
2023-02-03T12:03:47.711Z,10.40
2023-02-03T12:06:36.941Z,10.40
2023-02-03T12:09:22.676Z,10.30
2023-02-03T12:12:07.915Z,10.30
2023-02-03T12:14:53.360Z,10.20
2023-02-03T12:17:48.868Z,10.20
2023-02-03T12:20:30.047Z,10.10
2023-02-03T12:23:07.226Z,10.10
2023-02-03T12:25:44.387Z,10.10
2023-02-03T12:28:33.183Z,10.10
2023-02-03T12:31:08.976Z,10.00
2023-02-03T12:33:43.424Z,9.90
2023-02-03T12:36:15.378Z,9.90
2023-02-03T12:38:52.096Z,9.90
2023-02-03T12:41:24.059Z,9.90
2023-02-03T12:43:58.629Z,9.90
2023-02-03T12:46:30.622Z,9.90
2023-02-03T12:49:03.492Z,9.80
2023-02-03T12:51:38.336Z,9.90
2023-02-03T12:54:29.365Z,9.90
2023-02-03T12:57:01.060Z,9.80
2023-02-03T12:59:31.490Z,9.80
2023-02-03T13:02:02.574Z,9.80
2023-02-03T13:04:33.786Z,9.80
2023-02-03T13:07:09.012Z,9.80
2023-02-03T13:09:44.074Z,9.70
2023-02-03T13:12:14.383Z,9.70
2023-02-03T13:14:44.160Z,9.70
2023-02-03T13:17:16.857Z,9.70
2023-02-03T13:19:48.258Z,9.60
2023-02-03T13:22:17.294Z,9.60
2023-02-03T13:24:50.304Z,9.60
2023-02-03T13:27:33.117Z,9.70
2023-02-03T13:30:20.523Z,9.70
2023-02-03T13:33:10.452Z,9.70
2023-02-03T13:35:51.690Z,9.70
2023-02-03T13:38:39.996Z,9.70
2023-02-03T13:41:16.176Z,9.70
2023-02-03T13:43:46.593Z,9.70
2023-02-03T13:46:22.526Z,9.70
2023-02-03T13:48:49.822Z,9.80
2023-02-03T13:51:20.054Z,9.70
2023-02-03T13:53:51.262Z,9.80
2023-02-03T13:56:21.920Z,9.80
2023-02-03T13:59:04.003Z,9.90
2023-02-03T14:01:35.841Z,9.90
2023-02-03T14:04:05.577Z,9.90
2023-02-03T14:07:01.505Z,9.90
2023-02-03T14:09:46.685Z,9.90
2023-02-03T14:12:37.742Z,9.80
2023-02-03T14:15:32.372Z,9.80
2023-02-03T14:18:33.928Z,9.80
2023-02-03T14:21:14.403Z,9.80
2023-02-03T14:23:52.645Z,9.80
2023-02-03T14:26:38.515Z,9.80
2023-02-03T14:29:08.820Z,9.80
2023-02-03T14:31:55.645Z,9.70
2023-02-03T14:34:38.387Z,9.70
2023-02-03T14:37:16.441Z,9.70
2023-02-03T14:40:28.864Z,9.70
2023-02-03T14:43:27.913Z,9.70
2023-02-03T14:46:29.660Z,9.70
2023-02-03T14:49:13.984Z,9.70
2023-02-03T14:51:57.485Z,9.70
2023-02-03T14:54:45.997Z,9.80
2023-02-03T14:57:26.742Z,9.70
2023-02-03T14:59:58.517Z,9.80
2023-02-03T15:02:31.105Z,9.80
2023-02-03T15:05:35.404Z,9.90
2023-02-03T15:08:04.669Z,9.90
2023-02-03T15:10:42.507Z,10.00
2023-02-03T15:13:25.437Z,10.10
2023-02-03T15:15:54.345Z,10.10
2023-02-03T15:18:30.412Z,10.10
2023-02-03T15:20:57.701Z,10.10
2023-02-03T15:23:26.505Z,10.20
2023-02-03T15:25:54.880Z,10.20
2023-02-03T15:28:23.396Z,10.20
2023-02-03T15:30:55.734Z,10.20
2023-02-03T15:33:24.506Z,10.20
2023-02-03T15:35:56.907Z,10.20
2023-02-03T15:38:27.595Z,10.30
2023-02-03T15:40:57.873Z,10.20
2023-02-03T15:43:31.208Z,10.30
2023-02-03T15:46:05.085Z,10.30
2023-02-03T15:48:38.681Z,10.40
2023-02-03T15:51:12.253Z,10.40
2023-02-03T15:53:47.927Z,10.40
2023-02-03T15:56:26.519Z,10.50
2023-02-03T15:58:53.721Z,10.50
2023-02-03T16:01:25.997Z,10.60
2023-02-03T16:03:56.153Z,10.70
2023-02-03T16:06:27.804Z,10.70
2023-02-03T16:08:55.489Z,10.70
2023-02-03T16:11:24.707Z,10.80
2023-02-03T16:13:52.409Z,10.80
2023-02-03T16:16:22.540Z,10.80
2023-02-03T16:18:56.021Z,10.80
2023-02-03T16:21:28.493Z,10.80
2023-02-03T16:23:55.403Z,10.80
2023-02-03T16:26:24.858Z,10.80
2023-02-03T16:29:33.274Z,10.80
2023-02-03T16:32:19.321Z,10.80
2023-02-03T16:35:06.652Z,10.80
2023-02-03T16:37:54.086Z,10.80
2023-02-03T16:40:42.089Z,10.80
2023-02-03T16:43:31.516Z,10.80
2023-02-03T16:46:18.571Z,10.80
2023-02-03T16:49:04.305Z,10.80
2023-02-03T16:51:39.190Z,10.80
2023-02-03T16:54:06.843Z,10.80
2023-02-03T16:56:33.771Z,10.80
2023-02-03T16:59:00.795Z,10.80
2023-02-03T17:01:27.757Z,10.80
2023-02-03T17:03:54.692Z,10.80
2023-02-03T17:06:21.852Z,10.80
2023-02-03T17:08:50.092Z,10.80
2023-02-03T17:11:19.687Z,10.80
2023-02-03T17:13:47.664Z,10.70
2023-02-03T17:16:16.680Z,10.70
2023-02-03T17:18:45.692Z,10.70
2023-02-03T17:21:14.458Z,10.70
2023-02-03T17:23:41.480Z,10.70
2023-02-03T17:26:10.665Z,10.70
2023-02-03T17:28:39.209Z,10.70
2023-02-03T17:31:07.692Z,10.70
2023-02-03T17:33:35.504Z,10.70
2023-02-03T17:36:05.702Z,10.70
2023-02-03T17:38:35.868Z,10.70
2023-02-03T17:54:53.368Z,10.50
2023-02-03T17:57:21.556Z,10.50
2023-02-03T17:59:48.536Z,10.40
2023-02-03T18:02:16.543Z,10.40
2023-02-03T18:04:44.465Z,10.50
2023-02-03T18:07:11.257Z,10.40
2023-02-03T18:09:38.075Z,10.40
2023-02-03T18:12:05.358Z,10.40
2023-02-03T18:14:34.016Z,10.50
2023-02-03T18:17:00.966Z,10.40
2023-02-03T18:19:28.312Z,10.40
2023-02-03T18:21:55.323Z,10.40
2023-02-03T18:24:27.879Z,10.40
2023-02-03T18:26:55.718Z,10.40
2023-02-03T18:29:24.353Z,10.40
2023-02-03T18:31:53.227Z,10.40
2023-02-03T18:34:20.231Z,10.30
2023-02-03T18:36:47.169Z,10.40
2023-02-03T18:39:15.173Z,10.30
2023-02-03T18:41:42.383Z,10.30
2023-02-03T18:44:09.393Z,10.30
2023-02-03T18:46:36.421Z,10.20
2023-02-03T18:49:07.894Z,10.20
2023-02-03T18:51:34.763Z,10.30
2023-02-03T18:54:01.623Z,10.20
2023-02-03T18:56:35.386Z,10.30
2023-02-03T18:59:05.771Z,10.30
2023-02-03T19:01:32.924Z,10.20
2023-02-03T19:04:01.357Z,10.20
2023-02-03T19:06:31.180Z,10.10
2023-02-03T19:08:59.115Z,10.20
2023-02-03T19:11:26.243Z,10.20
2023-02-03T19:13:53.502Z,10.20
2023-02-03T19:16:21.544Z,10.20
2023-02-03T19:18:48.655Z,10.20
2023-02-03T19:21:17.930Z,10.20
2023-02-03T19:23:46.520Z,10.10
2023-02-03T19:26:13.726Z,10.10
2023-02-03T19:28:41.174Z,10.10
2023-02-03T19:31:10.835Z,10.10
2023-02-03T19:33:38.058Z,10.10
2023-02-03T19:36:06.013Z,10.10
2023-02-03T19:38:34.747Z,10.10
2023-02-03T19:41:04.468Z,10.10
2023-02-03T19:43:31.794Z,10.10
2023-02-03T19:45:59.156Z,10.10
2023-02-03T19:48:26.239Z,10.00
2023-02-03T19:50:53.482Z,10.00
2023-02-03T19:53:21.656Z,10.10
2023-02-03T19:55:48.703Z,10.10
2023-02-03T19:58:17.096Z,10.10
2023-02-03T20:00:44.288Z,10.00
2023-02-03T20:03:11.450Z,10.00
2023-02-03T20:05:38.642Z,10.00
2023-02-03T20:08:05.969Z,10.10
2023-02-03T20:10:33.166Z,10.10
2023-02-03T20:13:00.447Z,10.20
2023-02-03T20:15:28.793Z,10.20
2023-02-03T20:17:56.084Z,10.20
2023-02-03T20:20:23.538Z,10.20
2023-02-03T20:22:50.536Z,10.20
2023-02-03T20:25:18.397Z,10.30
2023-02-03T20:27:45.816Z,10.30
2023-02-03T20:30:13.826Z,10.30
2023-02-03T20:32:42.083Z,10.30
2023-02-03T20:35:10.150Z,10.30
2023-02-03T20:37:37.093Z,10.30
2023-02-03T20:40:06.329Z,10.30
2023-02-03T20:42:34.395Z,10.30
2023-02-03T20:45:01.553Z,10.30
2023-02-03T20:47:28.614Z,10.30
2023-02-03T20:49:56.949Z,10.30
2023-02-03T20:52:23.866Z,10.40
2023-02-03T20:54:50.756Z,10.40
2023-02-03T20:57:19.222Z,10.40
2023-02-03T20:59:46.917Z,10.40
2023-02-03T21:02:23.176Z,10.40
2023-02-03T21:04:59.368Z,10.40
2023-02-03T21:07:30.644Z,10.40
2023-02-03T21:09:58.235Z,10.40
2023-02-03T21:12:25.277Z,10.30
2023-02-03T21:14:55.004Z,10.30
2023-02-03T21:17:24.074Z,10.30
2023-02-03T21:19:51.604Z,10.20
2023-02-03T21:22:21.852Z,10.20
2023-02-03T21:24:53.509Z,10.20
2023-02-03T21:27:28.814Z,10.20
2023-02-03T21:29:57.264Z,10.20
2023-02-03T21:32:26.335Z,10.20
2023-02-03T21:34:53.362Z,10.10
2023-02-03T21:37:37.511Z,10.10
2023-02-03T21:40:19.934Z,10.10
2023-02-03T21:42:47.267Z,10.10
2023-02-03T21:45:34.220Z,10.10
2023-02-03T21:48:02.936Z,10.20
2023-02-03T21:50:32.216Z,10.20
2023-02-03T21:53:16.321Z,10.20
2023-02-03T21:55:44.543Z,10.20
2023-02-03T21:58:22.601Z,10.20
2023-02-03T22:00:50.633Z,10.20
2023-02-03T22:03:21.964Z,10.30
2023-02-03T22:05:49.111Z,10.30
2023-02-03T22:08:18.552Z,10.30
2023-02-03T22:10:46.959Z,10.30
2023-02-03T22:13:14.249Z,10.30
2023-02-03T22:15:41.719Z,10.30
2023-02-03T22:18:08.692Z,10.20
2023-02-03T22:20:35.903Z,10.20
2023-02-03T22:23:02.779Z,10.20
2023-02-03T22:25:29.644Z,10.20
2023-02-03T22:27:57.901Z,10.20
2023-02-03T22:30:24.718Z,10.20
2023-02-03T22:32:51.570Z,10.20
2023-02-03T22:35:18.482Z,10.20
2023-02-03T22:37:45.406Z,10.10
2023-02-03T22:40:13.064Z,10.10
2023-02-03T22:42:40.167Z,10.10
2023-02-03T22:45:09.307Z,10.10
2023-02-03T22:47:36.264Z,10.10
2023-02-03T22:50:03.379Z,10.10
2023-02-03T22:52:30.447Z,10.10
2023-02-03T22:54:57.335Z,10.10
2023-02-03T22:57:24.427Z,10.10
2023-02-03T22:59:51.287Z,10.00
2023-02-03T23:02:19.586Z,10.00
2023-02-03T23:04:46.540Z,10.10
2023-02-03T23:07:13.914Z,10.00
2023-02-03T23:09:40.805Z,10.00
2023-02-03T23:12:08.145Z,10.10
2023-02-03T23:14:35.180Z,10.10
2023-02-03T23:17:02.219Z,10.10
2023-02-03T23:19:30.459Z,10.10
2023-02-03T23:21:59.151Z,10.20
2023-02-03T23:24:26.055Z,10.10
2023-02-03T23:26:52.913Z,10.10
2023-02-03T23:29:19.804Z,10.10
2023-02-03T23:31:46.679Z,10.10
2023-02-03T23:34:32.307Z,10.10
2023-02-03T23:37:01.420Z,10.10
2023-02-03T23:39:29.466Z,10.10
2023-02-03T23:41:56.497Z,10.20
2023-02-03T23:44:23.581Z,10.10
2023-02-03T23:46:50.588Z,10.10
2023-02-03T23:49:17.432Z,10.10
2023-02-03T23:51:44.347Z,10.10
2023-02-03T23:54:12.498Z,10.10
2023-02-03T23:56:39.402Z,10.10
2023-02-03T23:59:06.250Z,10.10
